Página principal
METAR-TAF:

METAR-TAF

Aeroportos :

Chengdu, China

Aeroporto Internacional de Chengdu Shuangliu

latitude: 30-40N, longitude: 104-01E, altura: 508 m

Observação actual do tempo

O boletim foi feito há 1 hora e 14 minutos, às 06:00 UTC
Vento 4 kt de nor-nordeste, variando entre nor-noroeste e este
Temperatura 21°C
Humidade 49%
Pressão 1022 hPa
Visibilidade 10 km ou mais
Poucas nuvensa uma altura de 2600 ft

METAR: ZUUU 270600Z 03002MPS 340V100 9999 FEW026 21/10 Q1022 NOSIG

Hora: 15:14 (07:14 UTC)

Previsão

O boletim foi feito há 5 horas e 10 minutos, às 02:04 UTC
Previsão válida de 27 às 06 UTC a 28 às 06 UTC
Vento 6 kt de sudoeste
Visibilidade: 5000 m
Nuvens dispersasa uma altura de 5000 ft
neblina
Temporariamente
de 27 às 14 UTC a 27 às 18 UTC
Poucas nuvensa uma altura de 3000 ft, Cumulonimbus.
Nuvens dispersasa uma altura de 3000 ft
aguaceiros fracos de chuva

TAF: ZUUU 270204Z 2706/2806 22003MPS 5000 BR SCT050 TX20/2707Z TN13/2723Z TEMPO 2714/2718 -SHRA FEW030CB SCT030

Observações e previsões do tempo de mais de 4000 aeroportos (mensagens METAR e TAF).

As estações disponíveis são os pontos amarelos e vermelhos sobre o mapa.

Mova o rato sobre o mapa para ver o nome da estação.

Depois clique no ponto para visualizar as observações e previsões meteorológicas.

Para alterar o mapa : clique nos botões verdes com uma cruz preta para aumentar o zoom; no botão verde com uma pitada de zoom; ou nas setas verdes para mapas adjacentes.


METAR-TAF: